createdAt,value
2023-05-02T00:02:15.349Z,13.35
2023-05-02T00:04:42.290Z,13.40
2023-05-02T00:07:08.973Z,12.38
2023-05-02T00:09:35.612Z,11.00
2023-05-02T00:12:02.787Z,8.75
2023-05-02T00:14:29.402Z,11.15
2023-05-02T00:16:56.479Z,10.52
2023-05-02T00:19:23.289Z,11.60
2023-05-02T00:21:49.910Z,8.95
2023-05-02T00:26:45.463Z,10.35
2023-05-02T00:29:12.390Z,10.50
2023-05-02T00:34:08.337Z,10.57
2023-05-02T00:36:35.000Z,10.43
2023-05-02T00:39:01.622Z,11.40
2023-05-02T00:41:28.246Z,9.15
2023-05-02T00:43:54.866Z,8.55
2023-05-02T00:46:21.599Z,10.55
2023-05-02T00:48:48.409Z,10.52
2023-05-02T00:51:15.025Z,9.73
2023-05-02T00:56:09.886Z,8.73
2023-05-02T00:58:38.266Z,9.77
2023-05-02T01:01:22.989Z,11.45
2023-05-02T01:04:00.137Z,8.98
2023-05-02T01:06:36.122Z,10.10
2023-05-02T01:09:10.603Z,8.80
2023-05-02T01:11:37.207Z,9.20
2023-05-02T01:14:05.670Z,8.45
2023-05-02T01:19:05.916Z,9.32
2023-05-02T01:21:33.040Z,9.18
2023-05-02T01:23:59.655Z,8.38
2023-05-02T01:26:26.303Z,7.63
2023-05-02T01:28:58.346Z,8.93
2023-05-02T01:33:54.912Z,9.35
2023-05-02T01:36:22.849Z,8.57
2023-05-02T01:41:18.463Z,8.27
2023-05-02T01:43:46.040Z,9.65
2023-05-02T01:46:14.787Z,7.30
2023-05-02T01:48:44.676Z,8.10
2023-05-02T01:53:39.918Z,8.73
2023-05-02T01:56:06.868Z,8.35
2023-05-02T01:58:34.503Z,8.05
2023-05-02T02:01:01.795Z,8.30
2023-05-02T02:03:30.279Z,8.50
2023-05-02T02:05:57.091Z,8.23
2023-05-02T02:08:24.054Z,9.10
2023-05-02T02:10:53.468Z,9.43
2023-05-02T02:13:26.007Z,9.65
2023-05-02T02:15:53.851Z,9.68
2023-05-02T02:18:21.952Z,10.00
2023-05-02T02:20:49.175Z,9.80
2023-05-02T02:23:16.167Z,8.98
2023-05-02T02:28:11.326Z,9.50
2023-05-02T02:30:38.011Z,9.35
2023-05-02T02:33:04.720Z,9.75
2023-05-02T02:35:35.271Z,8.40
2023-05-02T02:38:14.130Z,8.20
2023-05-02T02:40:45.059Z,10.40
2023-05-02T02:43:20.318Z,9.52
2023-05-02T02:45:47.000Z,9.73
2023-05-02T02:48:22.533Z,9.15
2023-05-02T02:50:49.225Z,8.52
2023-05-02T02:53:18.347Z,8.88
2023-05-02T02:58:28.769Z,9.80
2023-05-02T03:00:56.135Z,9.35
2023-05-02T03:05:56.957Z,9.95
2023-05-02T03:10:51.680Z,10.05
2023-05-02T03:15:53.377Z,10.20
2023-05-02T03:18:26.702Z,10.15
2023-05-02T03:20:54.088Z,9.68
2023-05-02T03:23:20.911Z,8.32
2023-05-02T03:25:47.986Z,8.65
2023-05-02T03:28:20.307Z,8.93
2023-05-02T03:33:16.435Z,8.32
2023-05-02T03:35:45.001Z,9.52
2023-05-02T03:38:12.824Z,9.32
2023-05-02T03:40:39.606Z,8.73
2023-05-02T03:43:09.847Z,7.80
2023-05-02T03:45:36.556Z,10.43
2023-05-02T03:48:03.255Z,8.95
2023-05-02T03:50:31.144Z,10.65
2023-05-02T03:52:58.214Z,9.50
2023-05-02T03:58:08.720Z,8.98
2023-05-02T04:00:35.860Z,10.60
2023-05-02T04:03:05.806Z,11.27
2023-05-02T04:05:33.796Z,9.95
2023-05-02T04:08:01.456Z,9.30
2023-05-02T04:12:59.137Z,9.00
2023-05-02T04:15:26.219Z,8.75
2023-05-02T04:17:54.149Z,11.68
2023-05-02T04:22:50.972Z,12.68
2023-05-02T04:27:46.675Z,10.70
2023-05-02T04:30:16.683Z,9.43
2023-05-02T04:32:51.125Z,8.35
2023-05-02T04:35:18.072Z,7.80
2023-05-02T04:37:45.975Z,7.70
2023-05-02T04:40:13.141Z,9.02
2023-05-02T04:42:39.824Z,8.57
2023-05-02T04:45:19.789Z,9.85
2023-05-02T04:47:46.633Z,8.00
2023-05-02T04:50:13.298Z,8.38
2023-05-02T04:52:39.885Z,9.23
2023-05-02T04:55:07.156Z,9.15
2023-05-02T04:57:34.166Z,9.73
2023-05-02T05:09:56.336Z,10.50
2023-05-02T05:12:25.988Z,9.02
2023-05-02T05:14:53.311Z,7.65
2023-05-02T05:17:23.088Z,8.63
2023-05-02T05:22:17.107Z,7.57
2023-05-02T05:24:51.016Z,6.85
2023-05-02T05:27:18.127Z,6.10
2023-05-02T05:29:44.783Z,5.93
2023-05-02T05:32:12.104Z,6.82
2023-05-02T05:34:40.169Z,7.22
2023-05-02T05:37:07.033Z,7.25
2023-05-02T05:42:02.798Z,7.22
2023-05-02T05:44:31.786Z,9.18
2023-05-02T05:49:27.486Z,8.10
2023-05-02T05:54:21.216Z,6.60
2023-05-02T05:56:47.921Z,7.55
2023-05-02T05:59:17.891Z,8.10
2023-05-02T06:01:44.517Z,8.75
2023-05-02T06:04:12.520Z,9.88
2023-05-02T06:06:42.203Z,8.35
2023-05-02T06:09:09.079Z,7.13
2023-05-02T06:14:06.003Z,7.82
2023-05-02T06:16:33.065Z,6.93
2023-05-02T06:18:59.873Z,6.68
2023-05-02T06:21:26.573Z,9.45
2023-05-02T06:23:53.293Z,8.68
2023-05-02T06:26:19.982Z,7.90
2023-05-02T06:28:46.605Z,7.13
2023-05-02T06:31:13.333Z,10.73
2023-05-02T06:33:39.938Z,7.82
2023-05-02T06:36:06.641Z,7.85
2023-05-02T06:38:33.280Z,9.23
2023-05-02T06:40:59.912Z,8.82
2023-05-02T06:43:26.675Z,8.43
2023-05-02T06:45:54.791Z,8.85
2023-05-02T06:50:49.074Z,10.43
2023-05-02T06:53:15.991Z,9.50
2023-05-02T06:55:42.664Z,8.98
2023-05-02T06:58:09.380Z,9.02
2023-05-02T07:00:36.018Z,9.77
2023-05-02T07:03:03.342Z,10.80
2023-05-02T07:05:30.232Z,11.63
2023-05-02T07:07:56.861Z,10.77
2023-05-02T07:10:23.503Z,11.48
2023-05-02T07:12:50.358Z,11.80
2023-05-02T07:15:20.349Z,10.80
2023-05-02T07:17:47.964Z,10.15
2023-05-02T07:20:15.790Z,11.07
2023-05-02T07:22:43.219Z,9.48
2023-05-02T07:25:10.067Z,10.98
2023-05-02T07:27:36.732Z,10.15
2023-05-02T07:30:03.736Z,9.32
2023-05-02T07:32:31.400Z,9.60
2023-05-02T07:34:58.299Z,14.45
2023-05-02T07:37:24.903Z,10.77
2023-05-02T07:39:51.681Z,9.90
2023-05-02T07:44:45.203Z,10.70
2023-05-02T07:49:38.686Z,9.35
2023-05-02T07:52:05.349Z,8.60
2023-05-02T07:54:32.013Z,8.90
2023-05-02T07:57:02.448Z,9.30
2023-05-02T08:04:22.920Z,10.00
2023-05-02T08:06:49.830Z,8.52
2023-05-02T08:09:16.683Z,8.45
2023-05-02T08:11:43.362Z,9.25
2023-05-02T08:16:37.139Z,10.38
2023-05-02T08:19:03.946Z,7.45
2023-05-02T08:21:32.315Z,8.90
2023-05-02T08:26:26.472Z,9.45
2023-05-02T08:28:53.476Z,7.93
2023-05-02T08:36:18.438Z,7.88
2023-05-02T08:38:45.722Z,8.32
2023-05-02T08:41:17.847Z,8.73
2023-05-02T08:43:45.182Z,12.32
2023-05-02T08:46:12.977Z,9.40
2023-05-02T08:53:56.822Z,9.45
2023-05-02T08:56:23.576Z,7.60
2023-05-02T08:58:54.178Z,8.40
2023-05-02T09:01:23.734Z,10.20
2023-05-02T09:03:50.607Z,8.45
2023-05-02T09:06:18.214Z,8.05
2023-05-02T09:08:46.385Z,8.77
2023-05-02T09:11:13.684Z,9.13
2023-05-02T09:13:40.372Z,8.18
2023-05-02T09:16:08.293Z,8.18
2023-05-02T09:18:36.617Z,8.77
2023-05-02T09:21:09.155Z,8.95
2023-05-02T09:26:13.999Z,9.80
2023-05-02T09:28:42.489Z,9.40
2023-05-02T09:31:49.670Z,10.07
2023-05-02T09:36:45.069Z,8.60
2023-05-02T09:41:45.658Z,9.18
2023-05-02T09:44:13.432Z,9.23
2023-05-02T09:46:43.956Z,8.65
2023-05-02T09:49:10.722Z,9.73
2023-05-02T09:51:37.419Z,11.98
2023-05-02T09:54:04.397Z,10.27
2023-05-02T09:59:14.757Z,11.70
2023-05-02T10:01:45.035Z,8.50
2023-05-02T10:06:44.128Z,9.45
2023-05-02T10:09:15.414Z,9.00
2023-05-02T10:11:45.070Z,7.78
2023-05-02T10:14:12.488Z,9.13
2023-05-02T10:16:41.536Z,8.40
2023-05-02T10:19:09.890Z,8.90
2023-05-02T10:21:36.962Z,9.60
2023-05-02T10:24:04.491Z,8.55
2023-05-02T10:26:31.873Z,7.85
2023-05-02T10:28:58.653Z,9.35
2023-05-02T10:31:26.510Z,7.60
2023-05-02T10:36:24.197Z,10.88
2023-05-02T10:38:51.302Z,8.95
2023-05-02T10:41:20.656Z,8.27
2023-05-02T10:43:48.029Z,8.45
2023-05-02T10:46:34.269Z,10.48
2023-05-02T10:49:04.181Z,9.15
2023-05-02T10:51:33.853Z,8.48
2023-05-02T10:54:19.044Z,8.18
2023-05-02T10:57:04.052Z,7.15
2023-05-02T10:59:31.761Z,9.15
2023-05-02T11:04:25.733Z,8.48
2023-05-02T11:07:02.386Z,9.35
2023-05-02T11:09:29.036Z,8.57
2023-05-02T11:11:56.673Z,8.30
2023-05-02T11:14:26.167Z,9.70
2023-05-02T11:17:01.786Z,8.60
2023-05-02T11:19:31.057Z,7.70
2023-05-02T11:22:16.639Z,6.95
2023-05-02T11:27:30.014Z,8.73
2023-05-02T11:29:56.757Z,7.93
2023-05-02T11:37:20.374Z,8.05
2023-05-02T11:42:28.315Z,6.03
2023-05-02T11:45:01.607Z,5.55
2023-05-02T11:49:57.821Z,6.05
2023-05-02T11:52:24.934Z,7.22
2023-05-02T11:54:56.166Z,7.35
2023-05-02T11:57:26.402Z,6.07
2023-05-02T12:02:38.874Z,5.88
2023-05-02T12:05:28.467Z,4.88
2023-05-02T12:07:57.946Z,5.40
2023-05-02T12:10:54.549Z,6.13
2023-05-02T12:13:35.801Z,4.93
2023-05-02T12:16:09.520Z,5.57
2023-05-02T12:18:40.544Z,4.93
2023-05-02T12:21:12.870Z,5.65
2023-05-02T12:23:40.138Z,6.20
2023-05-02T12:26:37.420Z,5.65
2023-05-02T12:29:06.720Z,4.53
2023-05-02T12:31:40.500Z,5.60
2023-05-02T12:34:07.387Z,5.00
2023-05-02T12:36:47.690Z,5.85
2023-05-02T12:39:14.701Z,5.40
2023-05-02T12:41:46.336Z,5.25
2023-05-02T12:49:35.799Z,4.30
2023-05-02T12:57:07.472Z,5.57
2023-05-02T13:02:04.790Z,4.93
2023-05-02T13:04:39.037Z,4.65
2023-05-02T13:09:32.687Z,5.13
2023-05-02T13:14:26.496Z,4.97
2023-05-02T13:16:55.987Z,4.97
2023-05-02T13:19:22.792Z,5.60
2023-05-02T13:21:55.410Z,5.38
2023-05-02T13:24:22.031Z,6.10
2023-05-02T13:29:16.983Z,4.95
2023-05-02T13:31:43.629Z,4.70
2023-05-02T13:34:10.298Z,5.00
2023-05-02T13:36:40.862Z,3.92
2023-05-02T13:39:07.524Z,4.43
2023-05-02T13:41:34.360Z,4.25
2023-05-02T13:44:01.415Z,4.38
2023-05-02T13:49:06.778Z,4.22
2023-05-02T13:51:33.475Z,4.10
2023-05-02T13:54:00.829Z,4.45
2023-05-02T13:58:55.839Z,7.07
2023-05-02T14:01:24.112Z,4.28
2023-05-02T14:06:17.967Z,6.35
2023-05-02T14:08:45.132Z,5.03
2023-05-02T14:11:11.769Z,5.30
2023-05-02T14:13:38.380Z,4.30
2023-05-02T14:16:05.445Z,5.35
2023-05-02T14:18:32.156Z,4.13
2023-05-02T14:21:00.262Z,4.28
2023-05-02T14:23:29.815Z,3.65
2023-05-02T14:28:23.803Z,3.70
2023-05-02T14:30:50.508Z,3.85
2023-05-02T14:33:17.215Z,3.58
2023-05-02T14:35:43.964Z,3.55
2023-05-02T14:38:10.720Z,4.20
2023-05-02T14:40:38.344Z,3.20
2023-05-02T14:43:05.166Z,4.55
2023-05-02T14:45:32.016Z,3.38
2023-05-02T14:47:58.866Z,3.47
2023-05-02T14:52:53.032Z,3.70
2023-05-02T14:55:19.654Z,3.35
2023-05-02T14:57:46.377Z,4.05
2023-05-02T15:00:13.323Z,6.68
2023-05-02T15:02:40.493Z,4.10
2023-05-02T15:05:12.345Z,4.30
2023-05-02T15:07:39.287Z,4.40
2023-05-02T15:10:06.374Z,4.40
2023-05-02T15:15:00.230Z,4.80
2023-05-02T15:17:27.091Z,3.50
2023-05-02T15:19:54.229Z,4.40
2023-05-02T15:22:22.691Z,5.10
2023-05-02T15:27:16.228Z,4.68
2023-05-02T15:29:42.833Z,3.50
2023-05-02T15:32:09.520Z,3.47
2023-05-02T15:34:36.202Z,3.30
2023-05-02T15:37:02.836Z,3.22
2023-05-02T15:39:29.474Z,4.50
2023-05-02T15:41:57.094Z,3.08
2023-05-02T15:44:23.703Z,3.10
2023-05-02T15:46:50.358Z,2.30
2023-05-02T15:49:17.029Z,2.85
2023-05-02T15:51:43.888Z,4.30
2023-05-02T15:54:10.563Z,5.50
2023-05-02T15:59:04.498Z,3.75
2023-05-02T16:01:31.182Z,3.47
2023-05-02T16:03:57.873Z,3.10
2023-05-02T16:06:24.611Z,2.80
2023-05-02T16:08:51.261Z,2.40
2023-05-02T16:11:17.864Z,2.60
2023-05-02T16:18:38.483Z,2.85
2023-05-02T16:35:49.338Z,3.03
2023-05-02T16:38:16.095Z,2.90
2023-05-02T16:40:42.898Z,3.05
2023-05-02T16:50:31.793Z,3.25
2023-05-02T16:52:58.434Z,5.63
2023-05-02T16:55:25.064Z,5.95
2023-05-02T17:00:18.816Z,5.25
2023-05-02T17:07:40.782Z,6.95
2023-05-02T17:10:07.706Z,6.40
2023-05-02T17:12:34.333Z,3.83
2023-05-02T17:15:02.300Z,5.78
2023-05-02T17:17:31.001Z,6.97
2023-05-02T17:19:57.778Z,5.32
2023-05-02T17:22:24.537Z,7.22
2023-05-02T17:24:54.265Z,6.75
2023-05-02T17:27:20.911Z,6.82
2023-05-02T17:29:47.521Z,8.75
2023-05-02T17:32:16.020Z,8.25
2023-05-02T17:34:43.614Z,6.07
2023-05-02T17:37:10.416Z,5.80
2023-05-02T17:46:58.348Z,7.80
2023-05-02T17:49:25.170Z,8.43
2023-05-02T17:56:45.672Z,14.52
2023-05-02T17:59:12.356Z,11.13
2023-05-02T18:01:39.291Z,11.57
2023-05-02T18:04:06.413Z,6.20
2023-05-02T18:06:33.178Z,6.35
2023-05-02T18:14:06.372Z,6.53
2023-05-02T18:16:34.563Z,5.60
2023-05-02T18:19:01.550Z,4.43
2023-05-02T18:21:29.238Z,4.53
2023-05-02T18:23:57.006Z,4.85
2023-05-02T18:26:23.718Z,4.93
2023-05-02T18:28:53.549Z,6.20
2023-05-02T18:33:48.087Z,7.72
2023-05-02T18:36:15.861Z,9.25
2023-05-02T18:38:42.508Z,9.38
2023-05-02T18:41:09.530Z,7.30
2023-05-02T18:46:03.314Z,6.88
2023-05-02T18:48:29.973Z,6.72
2023-05-02T18:50:58.592Z,7.10
2023-05-02T18:53:26.512Z,7.75
2023-05-02T18:55:53.772Z,6.30
2023-05-02T18:58:23.706Z,5.93
2023-05-02T19:00:50.482Z,7.28
2023-05-02T19:05:44.461Z,6.40
2023-05-02T19:10:38.757Z,6.10
2023-05-02T19:15:33.439Z,7.22
2023-05-02T19:18:00.769Z,6.53
2023-05-02T19:20:28.852Z,6.45
2023-05-02T19:25:37.862Z,6.65
2023-05-02T19:28:04.558Z,9.40
2023-05-02T19:32:58.472Z,8.85
2023-05-02T19:40:19.317Z,5.28
2023-05-02T19:47:44.057Z,7.05
2023-05-02T19:50:11.032Z,5.60
2023-05-02T19:52:39.264Z,5.97
2023-05-02T19:55:07.236Z,4.88
2023-05-02T19:57:33.821Z,5.82
2023-05-02T20:00:00.630Z,4.90
2023-05-02T20:02:28.142Z,4.82
2023-05-02T20:12:16.407Z,6.63
2023-05-02T20:14:43.040Z,5.13
2023-05-02T20:17:09.734Z,4.75
2023-05-02T20:19:36.435Z,4.53
2023-05-02T20:22:03.078Z,3.75
2023-05-02T20:24:32.584Z,4.05
2023-05-02T20:26:59.183Z,4.32
2023-05-02T20:34:21.371Z,4.70
2023-05-02T20:36:48.052Z,4.63
2023-05-02T20:39:16.102Z,5.07
2023-05-02T20:41:43.435Z,4.72
2023-05-02T20:44:10.208Z,4.82
2023-05-02T20:46:37.217Z,4.28
2023-05-02T20:49:03.875Z,4.75
2023-05-02T20:51:31.306Z,5.45
2023-05-02T20:53:59.411Z,4.70
2023-05-02T20:56:26.380Z,4.60
2023-05-02T20:58:53.132Z,4.18
2023-05-02T21:01:19.815Z,5.10
2023-05-02T21:06:13.527Z,4.50
2023-05-02T21:08:40.194Z,4.38
2023-05-02T21:13:43.474Z,4.47
2023-05-02T21:16:13.815Z,4.13
2023-05-02T21:18:40.494Z,4.63
2023-05-02T21:23:34.133Z,4.28
2023-05-02T21:26:00.757Z,4.18
2023-05-02T21:28:28.120Z,4.32
2023-05-02T21:30:54.798Z,5.13
2023-05-02T21:33:21.406Z,4.72
2023-05-02T21:35:48.040Z,4.57
2023-05-02T21:38:14.688Z,5.03
2023-05-02T21:40:41.595Z,4.28
2023-05-02T21:45:34.993Z,5.50
2023-05-02T21:48:01.654Z,5.50
2023-05-02T21:50:29.545Z,4.95
2023-05-02T21:52:56.112Z,4.82
2023-05-02T21:55:24.955Z,5.03
2023-05-02T22:00:18.758Z,5.07
2023-05-02T22:05:14.114Z,5.05
2023-05-02T22:07:40.757Z,5.75
2023-05-02T22:15:01.886Z,6.22
2023-05-02T22:17:28.549Z,5.32
2023-05-02T22:19:55.313Z,5.57
2023-05-02T22:22:21.985Z,5.57
2023-05-02T22:27:15.485Z,5.70
2023-05-02T22:29:42.085Z,5.60
2023-05-02T22:32:08.859Z,5.68
2023-05-02T22:34:35.730Z,5.03
2023-05-02T22:37:02.350Z,6.22
2023-05-02T22:39:29.049Z,5.80
2023-05-02T22:41:55.660Z,5.00
2023-05-02T22:44:22.284Z,5.65
2023-05-02T22:46:49.126Z,5.70
2023-05-02T22:49:15.998Z,5.50
2023-05-02T22:51:42.666Z,6.25
2023-05-02T22:54:10.454Z,5.55
2023-05-02T22:56:37.180Z,6.28
2023-05-02T22:59:03.809Z,6.25
2023-05-02T23:01:30.598Z,8.13
2023-05-02T23:03:57.545Z,5.55
2023-05-02T23:06:24.519Z,8.35
2023-05-02T23:11:18.187Z,5.30
2023-05-02T23:13:44.869Z,5.70
2023-05-02T23:16:11.559Z,6.03
2023-05-02T23:18:38.244Z,5.60
2023-05-02T23:21:05.126Z,5.50
2023-05-02T23:25:58.757Z,5.78
2023-05-02T23:28:25.958Z,6.03
2023-05-02T23:33:20.885Z,5.40
2023-05-02T23:35:47.832Z,6.93
2023-05-02T23:38:14.548Z,7.13
2023-05-02T23:40:41.181Z,6.95
2023-05-02T23:43:08.979Z,7.20
2023-05-02T23:45:35.803Z,7.10
2023-05-02T23:48:02.575Z,6.05
2023-05-02T23:50:29.264Z,6.45
2023-05-02T23:55:22.778Z,7.72
2023-05-02T23:57:49.399Z,8.25
